createdAt,value
2019-02-25T00:01:06.820Z,9.20
2019-02-25T00:03:38.955Z,10.30
2019-02-25T00:06:11.090Z,11.43
2019-02-25T00:08:43.227Z,7.97
2019-02-25T00:11:15.352Z,7.97
2019-02-25T00:13:47.494Z,7.67
2019-02-25T00:16:19.618Z,7.93
2019-02-25T00:18:51.766Z,9.37
2019-02-25T00:21:23.885Z,7.93
2019-02-25T00:23:56.010Z,8.17
2019-02-25T00:26:28.139Z,10.60
2019-02-25T00:29:00.273Z,7.97
2019-02-25T00:31:32.401Z,9.53
2019-02-25T00:34:05.604Z,12.47
2019-02-25T00:36:37.731Z,8.83
2019-02-25T00:39:09.883Z,10.83
2019-02-25T00:41:41.989Z,9.60
2019-02-25T00:44:14.117Z,7.60
2019-02-25T00:46:46.249Z,7.83
2019-02-25T00:49:18.375Z,8.77
2019-02-25T00:51:50.499Z,7.93
2019-02-25T00:54:22.629Z,9.57
2019-02-25T00:56:54.766Z,9.90
2019-02-25T00:59:26.910Z,10.13
2019-02-25T01:01:59.043Z,8.10
2019-02-25T01:04:31.168Z,7.03
2019-02-25T01:07:03.300Z,7.73
2019-02-25T01:09:35.426Z,8.63
2019-02-25T01:12:07.551Z,9.53
2019-02-25T01:14:39.685Z,8.43
2019-02-25T01:17:11.815Z,7.33
2019-02-25T01:19:43.946Z,7.63
2019-02-25T01:22:16.075Z,9.13
2019-02-25T01:24:48.210Z,9.07
2019-02-25T01:27:20.334Z,6.33
2019-02-25T01:29:52.460Z,8.20
2019-02-25T01:32:25.659Z,10.50
2019-02-25T01:34:57.805Z,9.73
2019-02-25T01:37:29.930Z,9.57
2019-02-25T01:40:02.073Z,6.53
2019-02-25T01:42:34.376Z,8.47
2019-02-25T01:45:06.506Z,7.90
2019-02-25T01:47:38.636Z,8.37
2019-02-25T01:50:10.769Z,9.27
2019-02-25T01:52:42.907Z,8.97
2019-02-25T01:55:15.052Z,11.20
2019-02-25T01:57:47.453Z,10.77
2019-02-25T02:00:19.587Z,7.30
2019-02-25T02:02:51.715Z,7.73
2019-02-25T02:05:24.611Z,7.23
2019-02-25T02:07:56.951Z,8.50
2019-02-25T02:10:29.094Z,8.13
2019-02-25T02:13:01.215Z,12.23
2019-02-25T02:15:33.346Z,8.60
2019-02-25T02:18:05.474Z,8.60
2019-02-25T02:20:37.602Z,7.37
2019-02-25T02:23:09.729Z,9.20
2019-02-25T02:25:41.865Z,10.03
2019-02-25T02:28:13.989Z,7.53
2019-02-25T02:30:46.145Z,9.57
2019-02-25T02:33:18.282Z,7.40
2019-02-25T02:35:50.404Z,7.60
2019-02-25T02:38:22.530Z,12.77
2019-02-25T02:40:54.662Z,8.87
2019-02-25T02:43:26.790Z,8.07
2019-02-25T02:45:59.887Z,9.13
2019-02-25T02:48:32.009Z,7.87
2019-02-25T02:51:04.139Z,8.50
2019-02-25T02:53:36.267Z,8.33
2019-02-25T02:56:08.401Z,8.13
2019-02-25T02:58:40.525Z,8.50
2019-02-25T03:01:12.656Z,9.43
2019-02-25T03:03:44.790Z,7.20
2019-02-25T03:06:16.924Z,6.63
2019-02-25T03:08:49.059Z,6.57
2019-02-25T03:11:22.166Z,7.10
2019-02-25T03:13:54.302Z,8.83
2019-02-25T03:16:26.426Z,9.77
2019-02-25T03:18:58.555Z,6.13
2019-02-25T03:21:30.692Z,7.97
2019-02-25T03:24:02.817Z,12.50
2019-02-25T03:26:34.947Z,8.43
2019-02-25T03:29:07.088Z,8.73
2019-02-25T03:31:39.223Z,8.00
2019-02-25T03:34:11.348Z,12.43
2019-02-25T03:36:43.490Z,13.30
2019-02-25T03:39:15.613Z,7.83
2019-02-25T03:41:47.739Z,8.30
2019-02-25T03:44:19.880Z,7.27
2019-02-25T03:46:52.013Z,7.13
2019-02-25T03:49:24.138Z,8.83
2019-02-25T03:51:56.274Z,7.53
2019-02-25T03:54:28.404Z,8.83
2019-02-25T03:57:00.540Z,6.57
2019-02-25T03:59:32.675Z,7.83
2019-02-25T04:02:04.810Z,7.63
2019-02-25T04:04:36.937Z,8.30
2019-02-25T04:07:09.068Z,9.23
2019-02-25T04:09:41.201Z,7.97
2019-02-25T04:12:13.333Z,8.03
2019-02-25T04:14:45.471Z,6.47
2019-02-25T04:17:17.601Z,9.23
2019-02-25T04:19:49.731Z,8.83
2019-02-25T04:22:21.868Z,8.10
2019-02-25T04:24:53.995Z,8.87
2019-02-25T04:27:26.133Z,6.00
2019-02-25T04:29:58.272Z,6.67
2019-02-25T04:32:30.412Z,6.70
2019-02-25T04:35:02.568Z,7.27
2019-02-25T04:37:34.678Z,8.87
2019-02-25T04:40:06.810Z,9.07
2019-02-25T04:42:38.949Z,7.50
2019-02-25T04:45:11.065Z,6.60
2019-02-25T04:47:43.220Z,10.23
2019-02-25T04:50:15.356Z,7.03
2019-02-25T04:52:47.486Z,6.93
2019-02-25T04:55:19.613Z,9.00
2019-02-25T04:57:51.737Z,8.13
2019-02-25T05:00:23.864Z,9.10
2019-02-25T05:02:55.992Z,8.40
2019-02-25T05:05:28.120Z,7.03
2019-02-25T05:08:00.247Z,6.07
2019-02-25T05:10:32.379Z,7.37
2019-02-25T05:13:04.515Z,7.60
2019-02-25T05:15:36.648Z,6.40
2019-02-25T05:18:08.778Z,7.20
2019-02-25T05:20:40.904Z,9.10
2019-02-25T05:23:13.048Z,7.67
2019-02-25T05:25:45.174Z,6.27
2019-02-25T05:28:17.306Z,5.97
2019-02-25T05:30:49.438Z,7.80
2019-02-25T05:33:21.606Z,6.80
2019-02-25T05:35:53.981Z,6.77
2019-02-25T05:38:26.108Z,6.30
2019-02-25T05:40:58.239Z,5.87
2019-02-25T05:43:30.370Z,7.40
2019-02-25T05:46:02.501Z,9.37
2019-02-25T05:48:34.626Z,5.27
2019-02-25T05:51:06.753Z,6.00
2019-02-25T05:53:38.878Z,8.20
2019-02-25T05:56:11.007Z,6.50
2019-02-25T05:58:43.133Z,6.23
2019-02-25T06:01:15.277Z,6.70
2019-02-25T06:03:47.403Z,6.37
2019-02-25T06:06:19.550Z,9.47
2019-02-25T06:08:51.674Z,7.63
2019-02-25T06:11:23.804Z,13.10
2019-02-25T06:13:55.945Z,18.43
2019-02-25T06:16:28.083Z,13.10
2019-02-25T06:19:00.220Z,13.97
2019-02-25T06:21:32.349Z,17.93
2019-02-25T06:24:04.479Z,15.63
2019-02-25T06:26:38.609Z,12.27
2019-02-25T06:29:10.446Z,14.90
2019-02-25T06:31:42.581Z,16.97
2019-02-25T06:34:14.704Z,10.53
2019-02-25T06:36:46.845Z,12.93
2019-02-25T06:39:18.986Z,16.00
2019-02-25T06:41:51.130Z,18.30
2019-02-25T06:44:23.265Z,10.20
2019-02-25T06:46:55.448Z,12.10
2019-02-25T06:49:27.544Z,12.47
2019-02-25T06:51:59.681Z,13.10
2019-02-25T06:54:31.856Z,13.03
2019-02-25T06:57:03.957Z,8.27
2019-02-25T06:59:36.091Z,15.07
2019-02-25T07:02:08.223Z,11.40
2019-02-25T07:04:40.357Z,16.70
2019-02-25T07:07:12.489Z,14.60
2019-02-25T07:09:44.620Z,12.63
2019-02-25T07:12:16.752Z,10.57
2019-02-25T07:14:48.889Z,12.40
2019-02-25T07:17:22.658Z,10.30
2019-02-25T07:19:54.930Z,9.97
2019-02-25T07:22:27.060Z,8.90
2019-02-25T07:24:59.189Z,6.97
2019-02-25T07:27:31.324Z,9.13
2019-02-25T07:30:03.448Z,6.93
2019-02-25T07:32:36.541Z,7.37
2019-02-25T07:35:08.670Z,6.73
2019-02-25T07:37:40.811Z,8.27
2019-02-25T07:40:12.948Z,9.07
2019-02-25T07:42:45.069Z,9.73
2019-02-25T07:45:17.201Z,7.67
2019-02-25T07:47:49.350Z,7.47
2019-02-25T07:50:21.472Z,8.93
2019-02-25T07:52:53.600Z,11.97
2019-02-25T07:55:25.729Z,7.93
2019-02-25T07:57:57.867Z,12.07
2019-02-25T08:00:29.997Z,7.03
2019-02-25T08:03:02.134Z,11.23
2019-02-25T08:05:34.261Z,15.47
2019-02-25T08:08:06.393Z,7.73
2019-02-25T08:10:38.523Z,11.57
2019-02-25T08:13:10.652Z,9.93
2019-02-25T08:15:42.781Z,6.60
2019-02-25T08:18:14.926Z,14.37
2019-02-25T08:20:47.053Z,21.03
2019-02-25T08:23:19.183Z,27.60
2019-02-25T08:25:52.078Z,16.87
2019-02-25T08:28:24.224Z,16.20
2019-02-25T08:30:56.362Z,20.57
2019-02-25T08:33:28.491Z,30.13
2019-02-25T08:36:00.620Z,49.30
2019-02-25T08:38:32.760Z,54.13
2019-02-25T08:41:04.896Z,50.00
2019-02-25T08:43:37.037Z,57.00
2019-02-25T08:46:09.170Z,52.03
2019-02-25T08:48:41.307Z,54.47
2019-02-25T08:51:13.436Z,54.17
2019-02-25T08:53:45.566Z,42.47
2019-02-25T08:56:18.674Z,43.20
2019-02-25T08:58:50.806Z,44.33
2019-02-25T09:01:22.936Z,42.47
2019-02-25T09:03:55.080Z,43.07
2019-02-25T09:06:27.216Z,37.00
2019-02-25T09:08:59.365Z,40.33
2019-02-25T09:11:31.499Z,32.07
2019-02-25T09:14:03.629Z,31.33
2019-02-25T09:16:35.765Z,27.77
2019-02-25T09:19:07.909Z,30.43
2019-02-25T09:21:40.053Z,27.50
2019-02-25T09:24:12.184Z,28.43
2019-02-25T09:26:44.309Z,25.37
2019-02-25T09:29:16.451Z,23.67
2019-02-25T09:31:48.574Z,21.73
2019-02-25T09:34:20.709Z,23.17
2019-02-25T09:36:52.899Z,19.83
2019-02-25T09:39:24.995Z,21.20
2019-02-25T09:41:57.127Z,15.83
2019-02-25T09:44:29.255Z,17.97
2019-02-25T09:47:01.394Z,17.57
2019-02-25T09:49:33.522Z,15.37
2019-02-25T09:52:05.663Z,15.67
2019-02-25T09:54:37.786Z,16.57
2019-02-25T09:57:09.934Z,12.80
2019-02-25T09:59:42.062Z,12.13
2019-02-25T10:02:14.200Z,14.83
2019-02-25T10:04:46.334Z,14.07
2019-02-25T10:07:18.463Z,11.07
2019-02-25T10:09:50.597Z,10.07
2019-02-25T10:12:22.733Z,10.33
2019-02-25T10:14:55.833Z,10.97
2019-02-25T10:17:27.963Z,10.27
2019-02-25T10:20:00.144Z,9.50
2019-02-25T10:22:32.861Z,10.23
2019-02-25T10:25:04.998Z,9.00
2019-02-25T10:27:37.137Z,8.73
2019-02-25T10:30:09.271Z,9.27
2019-02-25T10:32:41.415Z,8.77
2019-02-25T10:35:13.534Z,12.37
2019-02-25T10:37:45.666Z,7.90
2019-02-25T10:40:22.158Z,7.70
2019-02-25T10:42:51.618Z,9.23
2019-02-25T10:45:23.747Z,9.63
2019-02-25T10:47:58.626Z,8.90
2019-02-25T10:50:31.086Z,11.83
2019-02-25T10:53:03.839Z,6.43
2019-02-25T10:55:35.941Z,7.50
2019-02-25T10:58:08.074Z,8.30
2019-02-25T11:00:41.656Z,8.63
2019-02-25T11:03:15.288Z,9.50
2019-02-25T11:05:47.861Z,9.27
2019-02-25T11:08:19.986Z,9.50
2019-02-25T11:10:54.924Z,8.63
2019-02-25T11:13:27.554Z,6.60
2019-02-25T11:16:01.025Z,6.40
2019-02-25T11:18:33.149Z,8.97
2019-02-25T11:21:06.110Z,8.47
2019-02-25T11:23:39.106Z,8.27
2019-02-25T11:26:11.226Z,8.90
2019-02-25T11:28:43.817Z,6.70
2019-02-25T11:31:18.151Z,7.20
2019-02-25T11:33:49.922Z,6.50
2019-02-25T11:36:22.165Z,6.13
2019-02-25T11:38:54.253Z,5.83
2019-02-25T11:41:27.442Z,7.93
2019-02-25T11:43:59.581Z,8.20
2019-02-25T11:46:31.701Z,6.40
2019-02-25T11:49:03.828Z,7.23
2019-02-25T11:51:35.963Z,7.10
2019-02-25T11:54:08.084Z,7.63
2019-02-25T11:56:40.221Z,6.60
2019-02-25T11:59:12.359Z,7.90
2019-02-25T12:01:44.481Z,7.07
2019-02-25T12:04:16.870Z,5.83
2019-02-25T12:06:49.002Z,7.80
2019-02-25T12:09:21.133Z,9.00
2019-02-25T12:11:53.262Z,7.23
2019-02-25T12:14:25.417Z,6.73
2019-02-25T12:16:57.537Z,6.60
2019-02-25T12:19:29.664Z,5.53
2019-02-25T12:22:01.789Z,7.93
2019-02-25T12:24:33.917Z,5.33
2019-02-25T12:27:06.052Z,5.33
2019-02-25T12:29:38.258Z,5.60
2019-02-25T12:32:10.382Z,6.20
2019-02-25T12:34:42.506Z,5.70
2019-02-25T12:37:14.633Z,5.70
2019-02-25T12:39:46.763Z,6.60
2019-02-25T12:42:18.891Z,5.73
2019-02-25T12:44:51.041Z,4.97
2019-02-25T12:47:23.172Z,4.30
2019-02-25T12:49:55.304Z,5.17
2019-02-25T12:52:27.429Z,5.10
2019-02-25T12:54:59.555Z,4.30
2019-02-25T12:57:31.680Z,6.20
2019-02-25T13:00:03.808Z,5.80
2019-02-25T13:02:36.006Z,4.37
2019-02-25T13:05:08.137Z,6.93
2019-02-25T13:07:40.262Z,4.93
2019-02-25T13:10:12.396Z,6.27
2019-02-25T13:12:44.535Z,5.50
2019-02-25T13:15:16.666Z,7.47
2019-02-25T13:17:48.785Z,4.80
2019-02-25T13:20:20.921Z,5.43
2019-02-25T13:22:53.060Z,4.37
2019-02-25T13:25:25.492Z,4.53
2019-02-25T13:27:58.765Z,4.53
2019-02-25T13:30:31.544Z,4.43
2019-02-25T13:33:03.675Z,5.07
2019-02-25T13:35:35.829Z,5.33
2019-02-25T13:38:07.959Z,7.23
2019-02-25T13:40:40.084Z,5.93
2019-02-25T13:43:12.207Z,3.93
2019-02-25T13:45:45.315Z,4.07
2019-02-25T13:48:18.424Z,4.80
2019-02-25T13:50:50.560Z,5.87
2019-02-25T13:53:22.859Z,4.00
2019-02-25T13:55:54.992Z,4.63
2019-02-25T13:58:27.132Z,5.00
2019-02-25T14:00:59.256Z,5.90
2019-02-25T14:03:31.381Z,4.73
2019-02-25T14:06:03.517Z,4.97
2019-02-25T14:08:35.650Z,5.00
2019-02-25T14:11:07.777Z,5.90
2019-02-25T14:13:39.911Z,4.60
2019-02-25T14:16:12.042Z,6.00
2019-02-25T14:18:44.173Z,5.87
2019-02-25T14:21:16.835Z,5.47
2019-02-25T14:23:49.100Z,4.83
2019-02-25T14:26:21.245Z,3.80
2019-02-25T14:28:53.373Z,4.70
2019-02-25T14:31:27.315Z,4.53
2019-02-25T14:33:59.614Z,6.57
2019-02-25T14:36:31.743Z,4.73
2019-02-25T14:39:04.943Z,4.03
2019-02-25T14:41:38.694Z,5.70
2019-02-25T14:44:10.834Z,3.40
2019-02-25T14:46:42.958Z,4.20
2019-02-25T14:49:15.091Z,5.60
2019-02-25T14:51:47.216Z,3.80
2019-02-25T14:54:19.617Z,3.23
2019-02-25T14:56:52.743Z,4.97
2019-02-25T14:59:25.567Z,3.33
2019-02-25T15:01:59.241Z,3.23
2019-02-25T15:04:32.889Z,5.97
2019-02-25T15:07:06.897Z,4.27
2019-02-25T15:09:41.278Z,6.73
2019-02-25T15:12:13.165Z,3.30
2019-02-25T15:14:45.300Z,3.67
2019-02-25T15:17:17.421Z,5.97
2019-02-25T15:19:49.551Z,3.33
2019-02-25T15:22:22.754Z,5.30
2019-02-25T15:24:55.063Z,5.17
2019-02-25T15:27:28.702Z,5.73
2019-02-25T15:30:00.827Z,5.00
2019-02-25T15:32:35.173Z,3.57
2019-02-25T15:35:07.309Z,4.40
2019-02-25T15:37:40.630Z,3.60
2019-02-25T15:40:14.582Z,5.63
2019-02-25T15:42:46.606Z,4.00
2019-02-25T15:45:18.742Z,3.37
2019-02-25T15:47:51.508Z,3.63
2019-02-25T15:52:53.340Z,6.73
2019-02-25T17:12:21.073Z,296.13
2019-02-25T17:14:53.377Z,254.33
2019-02-25T17:17:26.753Z,228.27
2019-02-25T17:19:58.891Z,204.93
2019-02-25T17:22:31.026Z,209.50
2019-02-25T17:25:08.193Z,194.67
2019-02-25T17:27:38.253Z,180.17
2019-02-25T17:30:10.415Z,164.30
2019-02-25T17:32:44.070Z,146.77
2019-02-25T17:35:16.388Z,140.13
2019-02-25T17:37:48.594Z,138.23
2019-02-25T17:40:20.754Z,123.03
2019-02-25T17:42:54.510Z,115.37
2019-02-25T17:45:29.319Z,108.63
2019-02-25T17:48:03.257Z,103.30
2019-02-25T17:50:37.032Z,87.50
2019-02-25T17:53:09.774Z,90.83
2019-02-25T17:55:42.245Z,86.67
2019-02-25T17:58:14.834Z,80.20
2019-02-25T18:00:47.811Z,69.67
2019-02-25T18:10:43.679Z,12.87
2019-02-25T18:13:16.591Z,8.77
2019-02-25T18:15:49.882Z,11.83
2019-02-25T18:18:24.561Z,13.87
2019-02-25T18:20:56.823Z,10.13
2019-02-25T18:23:28.958Z,11.90
2019-02-25T18:26:01.106Z,9.33
2019-02-25T18:28:34.898Z,10.63
2019-02-25T18:31:09.098Z,10.60
2019-02-25T18:33:42.026Z,14.13
2019-02-25T18:36:14.917Z,11.23
2019-02-25T18:38:48.593Z,10.33
2019-02-25T18:41:21.543Z,10.80
2019-02-25T18:43:54.777Z,11.77
2019-02-25T18:46:27.700Z,13.03
2019-02-25T18:49:00.794Z,14.57
2019-02-25T18:51:35.848Z,9.97
2019-02-25T18:54:07.867Z,12.63
2019-02-25T18:56:40.825Z,11.50
2019-02-25T18:59:16.211Z,13.13
2019-02-25T19:01:49.735Z,13.33
2019-02-25T19:04:22.649Z,14.67
2019-02-25T19:06:54.785Z,12.00
2019-02-25T19:09:27.692Z,13.93
2019-02-25T19:12:00.039Z,11.73
2019-02-25T19:14:33.186Z,15.27
2019-02-25T19:17:06.566Z,12.07
2019-02-25T19:19:40.563Z,12.73
2019-02-25T19:22:15.817Z,14.07
2019-02-25T19:24:49.271Z,12.37
2019-02-25T19:27:25.217Z,15.33
2019-02-25T19:30:00.238Z,12.50
2019-02-25T19:32:31.920Z,14.33
2019-02-25T19:35:06.762Z,14.83
2019-02-25T19:37:40.123Z,15.03
2019-02-25T19:40:14.247Z,14.57
2019-02-25T19:42:51.365Z,12.87
2019-02-25T19:45:21.859Z,16.13
2019-02-25T19:50:54.477Z,15.80
2019-02-25T19:53:31.481Z,15.20
2019-02-25T19:56:18.275Z,9.90
2019-02-25T19:58:58.070Z,12.43
2019-02-25T20:04:42.265Z,14.30
2019-02-25T20:12:44.802Z,14.83
2019-02-25T20:15:18.736Z,16.47
2019-02-25T20:17:55.106Z,14.63
2019-02-25T20:20:26.945Z,12.87
2019-02-25T20:22:59.948Z,16.57
2019-02-25T20:28:52.871Z,13.53
2019-02-25T20:34:22.580Z,22.90
2019-02-25T20:36:55.460Z,20.17
2019-02-25T20:42:21.410Z,15.63
2019-02-25T20:48:08.241Z,16.80
2019-02-25T20:50:37.075Z,17.10
2019-02-25T20:53:11.045Z,12.50
2019-02-25T20:55:43.283Z,14.37
2019-02-25T20:58:18.823Z,17.03
2019-02-25T21:00:51.996Z,12.77
2019-02-25T21:03:25.414Z,17.27
2019-02-25T21:05:58.362Z,15.40
2019-02-25T21:08:30.666Z,15.47
2019-02-25T21:11:07.992Z,13.80
2019-02-25T21:13:38.073Z,14.20
2019-02-25T21:16:13.181Z,18.23
2019-02-25T21:18:48.310Z,13.13
2019-02-25T21:21:19.230Z,17.17
2019-02-25T21:23:51.406Z,21.10
2019-02-25T21:26:25.465Z,16.47
2019-02-25T21:28:58.512Z,15.33
2019-02-25T21:31:32.252Z,20.40
2019-02-25T21:34:04.435Z,19.20
2019-02-25T21:36:38.161Z,18.60
2019-02-25T21:39:12.177Z,18.87
2019-02-25T21:41:45.861Z,28.23
2019-02-25T21:44:19.472Z,22.17
2019-02-25T21:46:54.037Z,22.63
2019-02-25T21:49:27.216Z,26.47
2019-02-25T21:52:02.480Z,26.17
2019-02-25T21:54:34.409Z,25.37
2019-02-25T21:57:09.730Z,27.23
2019-02-25T21:59:41.968Z,23.73
2019-02-25T22:02:14.104Z,25.13
2019-02-25T22:04:48.103Z,22.53
2019-02-25T22:07:24.447Z,23.13
2019-02-25T22:09:53.948Z,21.27
2019-02-25T22:12:26.879Z,21.53
2019-02-25T22:14:59.941Z,20.97
2019-02-25T22:17:32.069Z,21.60
2019-02-25T22:20:04.834Z,17.37
2019-02-25T22:22:38.072Z,20.87
2019-02-25T22:25:11.144Z,21.40
2019-02-25T22:27:45.593Z,22.43
2019-02-25T22:30:18.017Z,17.63
2019-02-25T22:32:50.166Z,20.13
2019-02-25T22:35:24.070Z,16.97
2019-02-25T22:37:58.085Z,18.70
2019-02-25T22:40:32.067Z,20.03
2019-02-25T22:43:03.927Z,21.20
2019-02-25T22:45:38.025Z,16.63
2019-02-25T22:48:11.657Z,19.30
2019-02-25T22:50:43.931Z,19.97
2019-02-25T22:53:16.063Z,21.97
2019-02-25T22:55:52.212Z,20.40
2019-02-25T22:58:23.715Z,17.73
2019-02-25T23:00:58.273Z,18.30
2019-02-25T23:03:31.600Z,23.13
2019-02-25T23:06:03.768Z,21.03
2019-02-25T23:08:35.931Z,23.13
2019-02-25T23:11:10.001Z,18.53
2019-02-25T23:13:43.300Z,13.57
2019-02-25T23:16:18.079Z,19.73
2019-02-25T23:18:49.570Z,20.20
2019-02-25T23:21:24.233Z,17.70
2019-02-25T23:23:57.685Z,19.00
2019-02-25T23:26:29.411Z,18.47
2019-02-25T23:29:01.638Z,16.57
2019-02-25T23:31:33.783Z,20.47
2019-02-25T23:34:10.035Z,18.67
2019-02-25T23:36:43.042Z,21.07
2019-02-25T23:39:17.140Z,14.33
2019-02-25T23:41:48.810Z,16.07
2019-02-25T23:44:22.198Z,16.47
2019-02-25T23:46:57.645Z,15.80
2019-02-25T23:49:28.722Z,19.70
2019-02-25T23:52:00.875Z,14.97
2019-02-25T23:54:33.022Z,19.83
2019-02-25T23:57:05.147Z,21.87
2019-02-25T23:59:40.413Z,19.33
